Harrisburg, NE (69345)

4:42 AM MDT on June 02, 2015 (GMT -0600)
Old Stage Hill Road | | Change Station
CLOSE
Current Station
Personal Weather Station
Location: Gering, NE
Elevation: 4360 ft
Nearby Weather Stations

Elev 4360 ft 41.72 °N, 103.67 °W | Updated 10 seconds ago

Partly Cloudy
Partly Cloudy
61.2 °F
Feels Like 61.2 °F
N
2.9
Wind Variable Wind from SSW
Gusts 8.0 mph

Today
High -- | Low -- °F
--% Chance of Precip.
Yesterday
High -- | Low -- °F
Precip. -- in
5:22 AM 8:23 PM
Full, 100% visible
Pressure 29.74 in
Visibility 10.0 miles
Clouds Few 7000 ft
Few 10000 ft
Few 11000 ft
Dew Point 56 °F
Humidity 82%
Rainfall 0.00 in
Snow Depth Not available.
UV 0.0 out of 12
Pollen 7.90 out of 12
Air Quality Not available.
Flu Activity No Activity
METAR KBFF 020953Z AUTO 11009G19KT 10SM FEW070 FEW100 FEW110 17/12 A2987 RMK AO2 PK WND 12028/0942 RAB18E29 SLP069 P0000 T01670117

More Conditions Fewer Conditions

Pressure 29.74 in
Visibility 10.0 miles
Clouds Few 7000 ft
Few 10000 ft
Few 11000 ft
Dew Point 56 °F
Humidity 82%
Rainfall 0.00 in
Snow Depth Not available.
UV 0.0 out of 12
Pollen 7.90 out of 12
Air Quality Not available.
Flu Activity No Activity
METAR KBFF 020953Z AUTO 11009G19KT 10SM FEW070 FEW100 FEW110 17/12 A2987 RMK AO2 PK WND 12028/0942 RAB18E29 SLP069 P0000 T01670117

More Conditions Fewer Conditions

10-Day Weather Forecast

Almanac

Astronomy

Jun. 02, 2015 Rise Set
Actual Time
Civil Twilight
Nautical Twilight
Astronomical Twilight
Moon
Length of Visible Light
Length of Day
Tomorrow will be .
, % of the Moon is Illuminated

Today's Extremes

State Highs State Lows

Community

WunderPhotos

Upload Photos

1,825,902 photos uploaded!

WunderBlogs® & News

Nearby

Air Quality

  Air Quality AQ Index Pollutant
Not available.

Snow Depth

Station Depth Elevation

Earthquake Activity

City Distance Mag. Time & Date
Minimum magnitude displayed is 2.5.

Coastal Water Temperatures

Place Temperature

Stations

Nearby Weather Stations

Station Location Temp. Windchill Dew Point Humidity Wind Precip. Elev Updated Type